Portada
METAR-TAF:

METAR-TAF

Aeroports :

San José, Costa Rica

latitud: 10-00N, longitud: 084-13W, altitud: 920 m

Observació

L'informe es va fer fa 14 minuts, a les 02:00 UTC
Vent 11 kt del Nord-Est
Temperatura 22°C
Humitat 65%
Pressió 1017 hPa
Visibilitat 10 km o més
sense núvols per sota de 1500 mi sense presència de cumulonimbus.

METAR: MROC 050200Z 05011KT CAVOK 22/15 A3003 NOSIG

Hora: 20:14 (02:14 UTC)

Pronòstic

L'informe es va fer fa 3 hores i 14 minuts, a les 23:00 UTC
Pronòstic vàlid del 05 a les 00 UTC al 05 a les 24 UTC
Vent 13 kt del Est
Visibilitat 10 km o més
sense núvols per sota de 1500 mi sense presència de cumulonimbus.
Temporalment
l' 05 a les 00 UTC al 05 a les 18 UTC
Vent 15 kt del Est amb ràfegues de 25 kt

TAF: MROC 042300Z 0500/0524 10013KT CAVOK TX28/0519Z TN18/0511Z TEMPO 0500/0518 08015G25KT

Observacions i pronòstics meteorològics de més de 4000 aeroports (METAR i TAF).

Les estacions disponibles són els punts grocs i vermells al mapa.

Posi el ratolí al punt desitjat per veure el nom de l'estació.

Feu clic per veure les observacions i els pronòstics meteorològics.

Per canviar el mapa: feu clic els botons verds amb una creu de color negre per apropar; al botó verd amb un guió per allunyar la imatge; o en les fletxes verdes per a mapes adjacents.


METAR-TAF: